Time;durP1;ratioP1;P1;durP2;ratioP2;P2;SDS_P1;SDS_P2;PMS_P1;PMS_P2;Temp;Humidity;BMP_temperature;BMP_pressure;BME280_temperature;BME280_humidity;BME280_pressure;Samples;Min_cycle;Max_cycle;Signal;HPM_P1;HPM_P2
2022/05/07 00:00:54;;;;;;;13.30;9.77;;;10.90;99.90;;;;;;5017012;28;20188;-46
2022/05/07 00:03:20;;;;;;;16.73;9.90;;;10.90;99.90;;;;;;5016916;28;20177;-46
2022/05/07 00:05:45;;;;;;;17.97;10.07;;;10.80;99.90;;;;;;5016987;28;20545;-47
2022/05/07 00:08:11;;;;;;;13.83;10.37;;;10.80;99.90;;;;;;5017011;28;20232;-48
2022/05/07 00:10:36;;;;;;;20.57;10.87;;;10.80;99.90;;;;;;5016795;28;20174;-46
2022/05/07 00:13:04;;;;;;;15.60;9.73;;;10.80;99.90;;;;;;5016885;28;20217;-46
2022/05/07 00:15:30;;;;;;;13.20;10.00;;;10.80;99.90;;;;;;5017058;28;20188;-48
2022/05/07 00:18:03;;;;;;;14.80;9.93;;;10.70;99.90;;;;;;5017049;28;20197;-46
2022/05/07 00:20:30;;;;;;;15.67;9.93;;;10.70;99.90;;;;;;5017061;28;20189;-47
2022/05/07 00:22:56;;;;;;;14.40;10.37;;;10.70;99.90;;;;;;5016847;28;20189;-46
2022/05/07 00:25:23;;;;;;;16.17;10.97;;;10.60;99.90;;;;;;5016900;28;20259;-46
2022/05/07 00:27:48;;;;;;;16.27;10.53;;;10.60;99.90;;;;;;5016552;28;20639;-46
2022/05/07 00:30:14;;;;;;;14.73;11.03;;;10.50;99.90;;;;;;5016693;28;20222;-45
2022/05/07 00:32:39;;;;;;;16.10;10.43;;;10.50;99.90;;;;;;5016361;28;20561;-46
2022/05/07 00:35:05;;;;;;;16.03;10.27;;;10.50;99.90;;;;;;5016586;28;20207;-45
2022/05/07 00:37:31;;;;;;;17.73;10.50;;;10.40;99.90;;;;;;5016365;28;20230;-46
2022/05/07 00:39:57;;;;;;;16.67;9.97;;;10.40;99.90;;;;;;5015714;28;20680;-46
2022/05/07 00:42:23;;;;;;;15.07;10.77;;;10.40;99.90;;;;;;5016418;28;20188;-46
2022/05/07 00:44:49;;;;;;;16.73;10.37;;;10.40;99.90;;;;;;5016361;28;20188;-46
2022/05/07 00:47:14;;;;;;;13.93;9.93;;;10.40;99.90;;;;;;5016847;28;20214;-46
2022/05/07 00:49:47;;;;;;;14.13;9.90;;;10.40;99.90;;;;;;5016226;28;20176;-46
2022/05/07 00:52:17;;;;;;;14.97;10.53;;;10.30;99.90;;;;;;5016091;28;20223;-46
2022/05/07 00:54:44;;;;;;;15.93;10.23;;;10.30;99.90;;;;;;5015906;28;20179;-45
2022/05/07 00:57:11;;;;;;;15.23;10.20;;;10.30;99.90;;;;;;5015777;28;20208;-45
2022/05/07 00:59:37;;;;;;;15.93;10.17;;;10.30;99.90;;;;;;5016204;28;20176;-44
2022/05/07 01:02:02;;;;;;;13.90;10.20;;;10.30;99.90;;;;;;5015819;28;20184;-48
2022/05/07 01:04:28;;;;;;;15.23;10.07;;;10.20;99.90;;;;;;5015952;28;20182;-46
2022/05/07 01:06:54;;;;;;;17.63;10.87;;;10.20;99.90;;;;;;5015746;28;20231;-47
2022/05/07 01:09:20;;;;;;;15.07;10.07;;;10.20;99.90;;;;;;5015668;28;20302;-46
2022/05/07 01:11:46;;;;;;;16.27;11.20;;;10.10;99.90;;;;;;5015439;28;20198;-45
2022/05/07 01:14:12;;;;;;;14.03;10.33;;;10.10;99.90;;;;;;5015896;28;20187;-45
2022/05/07 01:16:38;;;;;;;14.60;10.13;;;10.10;99.90;;;;;;5015515;28;20548;-45
2022/05/07 01:19:03;;;;;;;15.00;10.43;;;10.10;99.90;;;;;;5015990;28;20222;-47
2022/05/07 01:21:29;;;;;;;17.07;10.50;;;10.10;99.90;;;;;;5016193;28;20175;-45
2022/05/07 01:23:55;;;;;;;14.13;10.37;;;10.00;99.90;;;;;;5015998;28;20681;-44
2022/05/07 01:26:23;;;;;;;18.90;10.60;;;10.00;99.90;;;;;;5015724;28;20179;-45
2022/05/07 01:28:49;;;;;;;12.77;9.87;;;10.00;99.90;;;;;;5015543;28;20245;-46
2022/05/07 01:31:15;;;;;;;13.80;9.83;;;10.00;99.90;;;;;;5015384;28;20182;-45
2022/05/07 01:33:40;;;;;;;13.50;9.87;;;9.90;99.90;;;;;;5015355;28;20178;-46
2022/05/07 01:36:09;;;;;;;15.00;9.47;;;9.90;99.90;;;;;;5015534;28;20183;-45
2022/05/07 01:38:35;;;;;;;15.33;10.53;;;9.90;99.90;;;;;;5014973;28;20254;-45
2022/05/07 01:41:03;;;;;;;15.17;9.70;;;9.90;99.90;;;;;;5015009;28;20183;-48
2022/05/07 01:43:32;;;;;;;12.33;9.27;;;9.90;99.90;;;;;;5015240;28;20188;-47
2022/05/07 01:46:00;;;;;;;13.87;10.20;;;9.90;99.90;;;;;;5015137;28;20190;-44
2022/05/07 01:48:26;;;;;;;13.27;9.50;;;9.90;99.90;;;;;;5015007;28;20241;-46
2022/05/07 01:50:51;;;;;;;15.53;9.33;;;9.80;99.90;;;;;;5014755;28;20213;-46
2022/05/07 01:53:17;;;;;;;12.30;9.03;;;9.80;99.90;;;;;;5015086;28;20201;-45
2022/05/07 01:55:43;;;;;;;16.03;9.80;;;9.80;99.90;;;;;;5014947;28;20175;-46
2022/05/07 01:58:11;;;;;;;14.57;9.93;;;9.80;99.90;;;;;;5014693;28;20207;-46
2022/05/07 02:00:37;;;;;;;15.27;9.97;;;9.80;99.90;;;;;;5014820;28;20167;-45
2022/05/07 02:03:03;;;;;;;14.93;9.73;;;9.80;99.90;;;;;;5014790;28;20188;-45
2022/05/07 02:05:29;;;;;;;14.27;9.23;;;9.80;99.90;;;;;;5014898;28;20220;-46
2022/05/07 02:07:55;;;;;;;15.73;9.30;;;9.80;99.90;;;;;;5014586;28;20199;-45
2022/05/07 02:10:22;;;;;;;13.43;9.70;;;9.70;99.90;;;;;;5014670;28;20186;-47
2022/05/07 02:12:49;;;;;;;17.07;10.80;;;9.70;99.90;;;;;;5014574;28;20206;-46
2022/05/07 02:15:15;;;;;;;15.60;9.63;;;9.70;99.90;;;;;;5014385;28;20674;-45
2022/05/07 02:17:41;;;;;;;15.07;10.10;;;9.70;99.90;;;;;;5014461;28;20559;-46
2022/05/07 02:20:07;;;;;;;18.40;11.40;;;9.80;99.90;;;;;;5014538;28;20204;-46
2022/05/07 02:22:33;;;;;;;13.67;10.27;;;9.80;99.90;;;;;;5014588;28;20189;-46
2022/05/07 02:24:59;;;;;;;17.13;10.13;;;9.80;99.90;;;;;;5014411;28;20288;-45
2022/05/07 02:27:25;;;;;;;16.33;9.67;;;9.80;99.90;;;;;;5014138;28;20725;-45
2022/05/07 02:29:51;;;;;;;13.47;9.30;;;9.80;99.90;;;;;;5014105;28;20190;-46
2022/05/07 02:32:17;;;;;;;12.83;9.57;;;9.80;99.90;;;;;;5014257;28;20563;-46
2022/05/07 02:34:42;;;;;;;17.87;10.10;;;9.90;99.90;;;;;;5014500;28;20268;-45
2022/05/07 02:37:08;;;;;;;15.73;10.50;;;9.90;99.90;;;;;;5014119;28;20214;-45
2022/05/07 02:39:34;;;;;;;15.13;10.80;;;9.90;99.90;;;;;;5014062;28;20244;-46
2022/05/07 02:44:44;;;;;;;15.60;9.90;;;9.90;99.90;;;;;;5014286;28;20225;-44
2022/05/07 02:47:10;;;;;;;13.33;9.63;;;9.90;99.90;;;;;;5013905;28;20202;-46
2022/05/07 02:49:36;;;;;;;15.90;9.97;;;9.90;99.90;;;;;;5014026;28;20614;-47
2022/05/07 02:52:02;;;;;;;18.47;10.37;;;9.90;99.90;;;;;;5013996;28;20214;-46
2022/05/07 02:54:28;;;;;;;16.67;10.10;;;10.00;99.90;;;;;;5013773;28;20178;-48
2022/05/07 02:56:57;;;;;;;14.33;9.30;;;10.00;99.90;;;;;;5014164;28;20323;-45
2022/05/07 02:59:23;;;;;;;15.83;10.57;;;10.10;99.90;;;;;;5012464;28;20181;-47
2022/05/07 03:01:49;;;;;;;17.87;10.70;;;10.00;99.90;;;;;;5013794;28;20652;-46
2022/05/07 03:04:14;;;;;;;17.63;10.53;;;10.10;99.90;;;;;;5013949;28;20186;-45
2022/05/07 03:06:40;;;;;;;19.20;10.87;;;10.10;99.90;;;;;;5014083;28;20190;-47
2022/05/07 03:09:06;;;;;;;14.23;9.67;;;10.10;99.90;;;;;;5013855;28;20281;-45
2022/05/07 03:11:33;;;;;;;17.47;10.50;;;10.20;99.90;;;;;;5013651;28;20270;-46
2022/05/07 03:14:00;;;;;;;14.13;9.40;;;10.20;99.90;;;;;;5014264;28;20176;-46
2022/05/07 03:16:26;;;;;;;15.60;10.07;;;10.20;99.90;;;;;;5013852;28;20223;-46
2022/05/07 03:18:52;;;;;;;14.87;10.30;;;10.20;99.90;;;;;;5013546;28;20195;-46
2022/05/07 03:21:18;;;;;;;14.70;9.43;;;10.20;99.90;;;;;;5013448;28;20634;-46
2022/05/07 03:23:44;;;;;;;18.73;10.23;;;10.20;99.90;;;;;;5012507;28;20182;-45
2022/05/07 03:26:11;;;;;;;13.17;9.53;;;10.20;99.90;;;;;;5013618;28;20183;-46
2022/05/07 03:28:37;;;;;;;18.50;10.33;;;10.20;99.90;;;;;;5013463;28;20190;-46
2022/05/07 03:31:03;;;;;;;14.37;9.37;;;10.10;99.90;;;;;;5013472;28;20190;-48
2022/05/07 03:33:28;;;;;;;15.93;10.40;;;10.10;99.90;;;;;;5013387;28;20320;-45
2022/05/07 03:35:54;;;;;;;15.50;9.83;;;10.10;99.90;;;;;;5013929;28;20178;-46
2022/05/07 03:38:20;;;;;;;15.03;9.53;;;10.10;99.90;;;;;;5040390;23;20316;-43
2022/05/07 03:40:45;;;;;;;16.80;10.03;;;10.10;99.90;;;;;;5053263;28;20175;-43
2022/05/07 03:43:11;;;;;;;18.77;9.50;;;10.10;99.90;;;;;;5053263;28;20213;-44
2022/05/07 03:45:36;;;;;;;15.07;9.10;;;10.00;99.90;;;;;;5053225;28;20539;-44
2022/05/07 03:48:02;;;;;;;15.10;9.70;;;10.00;99.90;;;;;;5053144;28;20305;-44
2022/05/07 03:50:27;;;;;;;15.07;9.67;;;10.00;99.90;;;;;;5053016;28;20176;-45
2022/05/07 03:55:41;;;;;;;13.13;9.00;;;10.00;99.90;;;;;;5053283;28;20266;-45
2022/05/07 03:58:10;;;;;;;16.80;9.47;;;10.00;99.90;;;;;;5052758;28;20226;-44
2022/05/07 04:00:39;;;;;;;14.33;9.53;;;9.90;99.90;;;;;;5053040;28;20180;-45
2022/05/07 04:03:05;;;;;;;13.23;8.70;;;9.90;99.90;;;;;;5052898;28;20209;-44
2022/05/07 04:05:31;;;;;;;16.30;10.07;;;9.90;99.90;;;;;;5052848;28;20266;-45
2022/05/07 04:07:56;;;;;;;15.80;8.70;;;9.90;99.90;;;;;;5052690;28;20325;-43
2022/05/07 04:10:22;;;;;;;15.20;8.87;;;9.80;99.90;;;;;;5052801;28;20212;-44
2022/05/07 04:12:51;;;;;;;17.93;10.37;;;9.80;99.90;;;;;;5052904;28;20236;-44
2022/05/07 04:15:17;;;;;;;23.50;9.13;;;9.80;99.90;;;;;;5056628;28;20189;-43
2022/05/07 04:17:42;;;;;;;15.27;9.53;;;9.80;99.90;;;;;;5056347;28;20198;-45
2022/05/07 04:20:09;;;;;;;15.30;8.57;;;9.80;99.90;;;;;;5056362;28;20176;-46
2022/05/07 04:22:35;;;;;;;17.73;9.13;;;9.80;99.90;;;;;;5056583;28;20184;-43
2022/05/07 04:25:01;;;;;;;19.80;10.00;;;9.80;99.90;;;;;;5056606;28;20195;-45
2022/05/07 04:27:27;;;;;;;15.80;9.03;;;9.80;99.90;;;;;;5056161;28;20203;-44
2022/05/07 04:29:53;;;;;;;14.93;8.70;;;9.80;99.90;;;;;;5055287;28;20166;-44
2022/05/07 04:32:18;;;;;;;13.60;8.83;;;9.80;99.90;;;;;;5056357;28;20692;-45
2022/05/07 04:34:44;;;;;;;14.90;8.57;;;9.80;99.90;;;;;;5054823;28;20590;-46
2022/05/07 04:37:09;;;;;;;15.07;8.87;;;9.80;99.90;;;;;;5056237;28;20192;-43
2022/05/07 04:39:35;;;;;;;13.50;8.23;;;9.80;99.90;;;;;;5056037;28;20184;-44
2022/05/07 04:42:02;;;;;;;15.23;8.53;;;9.80;99.90;;;;;;5055963;28;20203;-42
2022/05/07 04:44:28;;;;;;;15.30;9.00;;;9.80;99.90;;;;;;5056311;28;20184;-46
2022/05/07 04:46:53;;;;;;;15.67;8.63;;;9.90;99.90;;;;;;5056007;28;20207;-45
2022/05/07 04:49:19;;;;;;;15.37;8.80;;;9.90;99.90;;;;;;5056200;28;20173;-46
2022/05/07 04:51:47;;;;;;;17.97;8.80;;;9.90;99.90;;;;;;5056137;28;20203;-44
2022/05/07 04:54:13;;;;;;;15.83;9.00;;;9.90;99.90;;;;;;5056592;28;20180;-46
2022/05/07 04:56:39;;;;;;;14.60;8.37;;;9.90;99.90;;;;;;5055669;28;20683;-44
2022/05/07 04:59:04;;;;;;;19.47;9.37;;;10.00;99.90;;;;;;5056057;28;20177;-45
2022/05/07 05:01:30;;;;;;;17.87;9.40;;;10.10;99.90;;;;;;5055730;28;20686;-44
2022/05/07 05:03:56;;;;;;;17.23;9.23;;;10.10;99.90;;;;;;5055491;28;20251;-43
2022/05/07 05:06:21;;;;;;;15.30;8.83;;;10.10;99.90;;;;;;5055846;28;20176;-43
2022/05/07 05:08:47;;;;;;;13.63;8.50;;;10.20;99.90;;;;;;5055559;28;20186;-45
2022/05/07 05:11:12;;;;;;;14.70;9.13;;;10.30;99.90;;;;;;5055476;28;20233;-46
2022/05/07 05:13:38;;;;;;;13.97;9.07;;;10.30;99.90;;;;;;5055443;28;20227;-44
2022/05/07 05:16:04;;;;;;;19.60;9.13;;;10.30;99.90;;;;;;5055976;28;20229;-44
2022/05/07 05:18:29;;;;;;;17.40;8.87;;;10.40;99.90;;;;;;5055257;28;20238;-44
2022/05/07 05:20:55;;;;;;;16.10;8.73;;;10.50;99.90;;;;;;5055344;28;20173;-44
2022/05/07 05:23:22;;;;;;;18.97;9.53;;;10.60;99.90;;;;;;5055359;28;20624;-45
2022/05/07 05:25:48;;;;;;;16.13;9.37;;;10.70;99.90;;;;;;5055128;28;20237;-43
2022/05/07 05:28:14;;;;;;;17.00;9.03;;;10.80;99.90;;;;;;5055404;28;20289;-45
2022/05/07 05:30:39;;;;;;;22.43;9.93;;;11.00;99.90;;;;;;5055376;28;20527;-43
2022/05/07 05:33:05;;;;;;;17.33;10.23;;;11.10;99.90;;;;;;5055045;28;20198;-44
2022/05/07 05:35:31;;;;;;;17.13;10.00;;;11.30;99.90;;;;;;5055316;28;20228;-42
2022/05/07 05:37:56;;;;;;;16.07;10.53;;;11.50;99.90;;;;;;5054742;28;20559;-45
2022/05/07 05:40:22;;;;;;;19.53;10.53;;;11.70;99.90;;;;;;5055067;28;20177;-44
2022/05/07 05:42:47;;;;;;;16.13;10.77;;;11.80;99.90;;;;;;5055074;28;20177;-45
2022/05/07 05:45:13;;;;;;;23.40;10.87;;;12.00;99.90;;;;;;5055153;28;20589;-44
2022/05/07 05:47:39;;;;;;;20.20;11.00;;;12.20;99.90;;;;;;5055315;28;20202;-45
2022/05/07 05:50:05;;;;;;;20.63;10.80;;;12.40;99.90;;;;;;5055023;28;20630;-44
2022/05/07 05:52:32;;;;;;;17.20;10.80;;;12.50;99.90;;;;;;5055175;28;20207;-45
2022/05/07 05:54:57;;;;;;;21.97;10.40;;;12.70;99.90;;;;;;5055371;28;20600;-45
2022/05/07 05:57:23;;;;;;;20.07;10.97;;;12.90;99.90;;;;;;5055017;28;20194;-44
2022/05/07 05:59:49;;;;;;;17.10;10.50;;;13.10;99.90;;;;;;5055053;28;20175;-44
2022/05/07 06:02:17;;;;;;;19.50;10.27;;;13.30;99.90;;;;;;5055092;28;20188;-43
2022/05/07 06:04:43;;;;;;;17.73;10.57;;;13.40;99.90;;;;;;5055292;28;20218;-43
2022/05/07 06:07:09;;;;;;;16.07;10.00;;;13.60;99.90;;;;;;5055129;28;20295;-45
2022/05/07 06:09:35;;;;;;;17.60;10.40;;;13.80;99.90;;;;;;5055212;28;20225;-45
2022/05/07 06:12:00;;;;;;;16.73;9.97;;;13.90;99.90;;;;;;5054816;28;20217;-44
2022/05/07 06:14:26;;;;;;;18.00;10.07;;;14.10;99.90;;;;;;5053644;28;20205;-43
2022/05/07 06:16:52;;;;;;;19.40;10.77;;;14.20;99.90;;;;;;5054732;28;20202;-44
2022/05/07 06:19:17;;;;;;;17.47;10.50;;;14.30;99.90;;;;;;5054594;28;20258;-44
2022/05/07 06:21:43;;;;;;;17.87;10.23;;;14.40;99.90;;;;;;5054746;28;20186;-44
2022/05/07 06:29:37;;;;;;;16.33;10.17;;;14.90;99.90;;;;;;5054088;28;20170;-45
2022/05/07 06:32:02;;;;;;;16.20;9.80;;;15.10;99.90;;;;;;5054525;28;20207;-45
2022/05/07 06:34:28;;;;;;;16.83;10.50;;;15.30;99.90;;;;;;5054147;28;20266;-44
2022/05/07 06:36:54;;;;;;;20.57;10.80;;;15.60;99.90;;;;;;5053278;28;20206;-45
2022/05/07 06:39:21;;;;;;;19.43;11.00;;;15.80;99.90;;;;;;5054069;28;20199;-43
2022/05/07 06:41:48;;;;;;;15.70;10.47;;;15.90;99.90;;;;;;5054217;28;20233;-45
2022/05/07 06:44:14;;;;;;;14.07;9.20;;;16.10;99.90;;;;;;5053931;28;20648;-45
2022/05/07 06:46:40;;;;;;;13.97;9.30;;;16.20;99.90;;;;;;5054415;28;20211;-45
2022/05/07 06:49:05;;;;;;;13.90;9.20;;;16.30;99.90;;;;;;5053767;28;20184;-47
2022/05/07 06:51:33;;;;;;;19.87;9.47;;;16.40;99.90;;;;;;5053657;28;20191;-45
2022/05/07 06:53:58;;;;;;;16.13;9.17;;;16.50;99.90;;;;;;5054407;28;20252;-41
2022/05/07 06:56:24;;;;;;;12.37;9.23;;;16.70;99.90;;;;;;5053616;28;20176;-42
2022/05/07 06:58:50;;;;;;;15.77;9.67;;;16.80;99.90;;;;;;5054041;28;20207;-40
2022/05/07 07:01:15;;;;;;;17.33;10.60;;;16.80;99.90;;;;;;5053865;28;20168;-42
2022/05/07 07:03:41;;;;;;;13.90;9.90;;;17.00;99.90;;;;;;5054065;28;20210;-40
2022/05/07 07:06:07;;;;;;;17.53;10.50;;;17.10;99.90;;;;;;5052320;28;20191;-39
2022/05/07 07:08:33;;;;;;;15.40;10.10;;;17.20;99.90;;;;;;5053428;28;20189;-39
2022/05/07 07:10:59;;;;;;;15.73;10.03;;;17.20;99.90;;;;;;5053392;28;20176;-38
2022/05/07 07:13:25;;;;;;;15.97;10.60;;;17.20;99.90;;;;;;5053316;28;20203;-40
2022/05/07 07:15:50;;;;;;;18.07;10.07;;;17.30;99.90;;;;;;5053603;28;20176;-41
2022/05/07 07:18:16;;;;;;;13.87;9.83;;;17.50;99.90;;;;;;5053277;28;20199;-41
2022/05/07 07:20:43;;;;;;;20.50;10.77;;;17.60;99.90;;;;;;5053619;28;20180;-39
2022/05/07 07:23:13;;;;;;;18.93;11.23;;;17.70;99.90;;;;;;5053238;28;20277;-40
2022/05/07 07:25:40;;;;;;;15.67;10.73;;;17.80;99.90;;;;;;5053373;28;20180;-40
2022/05/07 07:28:07;;;;;;;14.00;11.17;;;17.90;99.90;;;;;;5053277;28;20192;-40
2022/05/07 07:30:33;;;;;;;18.13;11.43;;;18.10;99.90;;;;;;5053298;28;20180;-39
2022/05/07 07:33:01;;;;;;;20.13;12.13;;;18.10;99.90;;;;;;5053340;28;20628;-41
2022/05/07 07:35:26;;;;;;;13.87;11.13;;;18.10;99.90;;;;;;5053292;28;20180;-40
2022/05/07 07:37:52;;;;;;;22.03;10.97;;;18.20;99.90;;;;;;5053026;28;20221;-42
2022/05/07 07:40:18;;;;;;;16.27;11.40;;;18.40;99.90;;;;;;5053251;28;20169;-39
2022/05/07 07:42:44;;;;;;;14.70;10.97;;;18.60;99.90;;;;;;5053075;28;20276;-41
2022/05/07 07:48:03;;;;;;;15.67;11.03;;;18.80;99.90;;;;;;5054961;28;20222;-41
2022/05/07 07:50:34;;;;;;;19.40;12.60;;;18.90;99.90;;;;;;5057264;28;20204;-38
2022/05/07 07:53:04;;;;;;;19.03;11.80;;;18.80;99.90;;;;;;5056964;28;20192;-40
2022/05/07 07:55:30;;;;;;;19.97;12.63;;;18.80;99.90;;;;;;5057180;28;20274;-41
2022/05/07 07:57:57;;;;;;;18.63;12.07;;;18.80;99.90;;;;;;5056794;28;20200;-40
2022/05/07 08:00:24;;;;;;;15.27;10.93;;;18.80;99.90;;;;;;5057022;28;20181;-40
2022/05/07 08:02:58;;;;;;;18.67;11.97;;;18.70;99.90;;;;;;5056986;28;20257;-42
2022/05/07 08:05:26;;;;;;;16.73;11.63;;;18.70;99.90;;;;;;5056990;28;20585;-38
2022/05/07 08:13:21;;;;;;;16.57;11.13;;;18.70;99.90;;;;;;5056981;28;20400;-43
2022/05/07 08:15:48;;;;;;;17.00;12.10;;;18.60;99.90;;;;;;5057148;28;20211;-41
2022/05/07 08:18:14;;;;;;;16.97;11.67;;;18.60;99.90;;;;;;5056513;28;20192;-39
2022/05/07 08:20:41;;;;;;;16.53;11.37;;;18.60;99.90;;;;;;5056889;28;20181;-41
2022/05/07 08:23:11;;;;;;;15.53;10.77;;;18.60;99.90;;;;;;5057124;28;20227;-41
2022/05/07 08:25:37;;;;;;;14.47;11.97;;;18.60;99.90;;;;;;5056803;28;20735;-40
2022/05/07 08:28:04;;;;;;;15.90;10.87;;;18.70;99.90;;;;;;5056387;28;20575;-37
2022/05/07 08:30:29;;;;;;;17.23;11.03;;;18.80;99.90;;;;;;5056283;28;20192;-41
2022/05/07 08:32:55;;;;;;;14.57;11.10;;;18.80;99.90;;;;;;5056176;28;20588;-40
2022/05/07 08:35:21;;;;;;;16.10;11.93;;;18.80;99.90;;;;;;5056081;28;20301;-41
2022/05/07 08:37:47;;;;;;;16.07;12.33;;;19.00;99.90;;;;;;5055962;28;20207;-41
2022/05/07 08:40:17;;;;;;;18.20;11.97;;;19.10;99.90;;;;;;5056129;28;20173;-39
2022/05/07 08:42:44;;;;;;;22.63;12.27;;;19.10;99.90;;;;;;5056442;28;20180;-41
2022/05/07 08:45:12;;;;;;;17.17;12.27;;;19.20;99.90;;;;;;5056607;28;20192;-37
2022/05/07 08:47:39;;;;;;;16.30;11.87;;;19.40;99.90;;;;;;5054598;28;20257;-40
2022/05/07 08:50:14;;;;;;;16.70;11.57;;;19.70;99.90;;;;;;5056486;28;20731;-40
2022/05/07 08:52:42;;;;;;;15.60;11.73;;;20.00;99.90;;;;;;5056081;28;20235;-41
2022/05/07 08:55:13;;;;;;;18.37;12.13;;;20.10;99.90;;;;;;5056144;28;20172;-39
2022/05/07 08:57:40;;;;;;;19.73;13.10;;;20.40;99.90;;;;;;5056279;28;20196;-39
2022/05/07 09:00:07;;;;;;;19.23;11.70;;;20.60;99.90;;;;;;5055574;28;20505;-39
2022/05/07 09:02:39;;;;;;;16.67;11.43;;;20.70;99.90;;;;;;5055714;28;20173;-39
2022/05/07 09:05:05;;;;;;;15.57;11.47;;;20.70;99.90;;;;;;5056146;28;20180;-42
2022/05/07 09:07:31;;;;;;;17.53;11.13;;;20.80;99.90;;;;;;5055602;28;20571;-40
2022/05/07 09:09:57;;;;;;;17.73;12.10;;;21.00;99.90;;;;;;5055458;28;20199;-42
2022/05/07 09:12:30;;;;;;;17.10;11.67;;;21.20;99.90;;;;;;5055820;28;20553;-40
2022/05/07 09:15:04;;;;;;;13.97;11.57;;;21.40;99.90;;;;;;5055726;28;20172;-40
2022/05/07 09:17:30;;;;;;;16.67;11.93;;;21.60;99.90;;;;;;5054200;28;20206;-40
2022/05/07 09:19:56;;;;;;;18.20;11.93;;;21.60;99.90;;;;;;5054139;28;20267;-42
2022/05/07 09:22:21;;;;;;;14.83;11.17;;;21.70;99.90;;;;;;5055445;28;20180;-41
2022/05/07 09:24:55;;;;;;;13.73;11.07;;;21.70;99.90;;;;;;5055384;28;20219;-41
2022/05/07 09:27:22;;;;;;;18.30;13.03;;;21.90;99.90;;;;;;5055457;28;20216;-41
2022/05/07 09:30:08;;;;;;;15.83;11.17;;;22.00;99.90;;;;;;5055514;28;20314;-41
2022/05/07 09:32:37;;;;;;;17.47;11.27;;;22.00;99.90;;;;;;5055026;28;20227;-41
2022/05/07 09:37:59;;;;;;;19.10;12.10;;;22.10;99.90;;;;;;5055482;28;20269;-42
2022/05/07 09:40:25;;;;;;;15.07;10.83;;;22.10;99.90;;;;;;5055280;28;20196;-40
2022/05/07 09:42:52;;;;;;;16.50;11.80;;;22.20;99.90;;;;;;5055429;28;20188;-40
2022/05/07 09:45:19;;;;;;;16.70;11.83;;;22.30;99.90;;;;;;5055098;28;20724;-40
2022/05/07 09:47:46;;;;;;;15.97;11.37;;;22.40;99.90;;;;;;5055052;28;20204;-41
2022/05/07 09:50:21;;;;;;;15.23;10.80;;;22.50;99.90;;;;;;5055343;28;20179;-41
2022/05/07 09:58:17;;;;;;;13.17;10.10;;;22.40;99.90;;;;;;5055011;28;20225;-39
2022/05/07 10:01:35;;;;;;;17.43;11.33;;;22.40;99.90;;;;;;5054797;28;20187;-41
2022/05/07 10:04:16;;;;;;;16.60;10.00;;;22.60;99.90;;;;;;5015275;28;20563;-41
2022/05/07 10:07:01;;;;;;;14.57;10.60;;;22.90;99.90;;;;;;5055052;28;20284;-41
2022/05/07 10:10:13;;;;;;;14.73;10.87;;;23.10;99.90;;;;;;5054863;28;20187;-39
2022/05/07 10:12:44;;;;;;;16.97;11.23;;;23.10;99.90;;;;;;5054589;28;20720;-42
2022/05/07 10:15:12;;;;;;;16.63;11.23;;;23.10;99.90;;;;;;5054883;28;20164;-40
2022/05/07 10:17:38;;;;;;;14.47;11.27;;;23.20;99.90;;;;;;5054546;28;20283;-40
2022/05/07 10:20:09;;;;;;;18.10;12.03;;;23.20;99.90;;;;;;5054551;28;20215;-42
2022/05/07 10:22:35;;;;;;;18.00;12.23;;;23.10;99.90;;;;;;5055133;28;20176;-41
2022/05/07 10:25:13;;;;;;;20.60;12.50;;;23.00;99.90;;;;;;5054175;28;20589;-42
2022/05/07 10:27:44;;;;;;;15.53;12.20;;;22.90;99.90;;;;;;5054420;28;20207;-41
2022/05/07 10:30:09;;;;;;;18.70;12.60;;;22.90;99.90;;;;;;5054558;28;20203;-41
2022/05/07 10:32:58;;;;;;;15.07;11.80;;;22.90;99.90;;;;;;5054868;28;20290;-46
2022/05/07 10:35:55;;;;;;;16.47;12.87;;;22.80;99.90;;;;;;5054262;28;20168;-46
2022/05/07 10:38:24;;;;;;;16.13;12.27;;;22.70;99.90;;;;;;5054141;28;20231;-47
2022/05/07 10:40:58;;;;;;;17.47;12.93;;;22.60;99.90;;;;;;5054009;28;20176;-46
2022/05/07 10:43:36;;;;;;;15.33;11.53;;;22.60;99.90;;;;;;5054093;28;20165;-46
2022/05/07 10:46:08;;;;;;;16.20;12.40;;;22.40;99.90;;;;;;5054115;28;20188;-47
2022/05/07 10:48:48;;;;;;;16.03;11.73;;;22.30;99.90;;;;;;5053789;28;20207;-46
2022/05/07 10:51:20;;;;;;;16.60;11.97;;;22.40;99.90;;;;;;5054024;28;20172;-45
2022/05/07 10:53:46;;;;;;;16.20;12.87;;;22.30;99.90;;;;;;5053618;28;20232;-45
2022/05/07 10:56:20;;;;;;;17.63;12.70;;;22.30;99.90;;;;;;5053763;28;20187;-46
2022/05/07 10:58:47;;;;;;;16.63;12.30;;;22.40;99.90;;;;;;5053765;28;20259;-45
2022/05/07 11:01:13;;;;;;;16.30;12.70;;;22.50;99.90;;;;;;5053676;28;20263;-47
2022/05/07 11:03:38;;;;;;;15.73;12.10;;;22.50;99.90;;;;;;5053968;28;20676;-46
2022/05/07 11:06:06;;;;;;;15.87;12.33;;;22.50;99.90;;;;;;5054233;28;20624;-46
2022/05/07 11:08:32;;;;;;;16.03;11.97;;;22.70;99.90;;;;;;5053698;28;20204;-46
2022/05/07 11:11:08;;;;;;;13.33;11.20;;;22.70;99.90;;;;;;5053675;28;20524;-47
2022/05/07 11:13:53;;;;;;;15.50;11.90;;;22.70;99.90;;;;;;5053459;28;20663;-46
2022/05/07 11:16:20;;;;;;;15.47;12.47;;;22.90;99.90;;;;;;5053697;28;20156;-46
2022/05/07 11:18:50;;;;;;;16.73;12.53;;;23.10;99.90;;;;;;5053351;28;20683;-47
2022/05/07 11:21:25;;;;;;;16.40;11.40;;;23.20;99.90;;;;;;5055435;28;20157;-47
2022/05/07 11:24:00;;;;;;;16.90;11.67;;;23.30;99.90;;;;;;5053308;28;20685;-48
2022/05/07 11:26:34;;;;;;;14.17;11.17;;;23.30;99.90;;;;;;5053649;28;20168;-46
2022/05/07 11:28:59;;;;;;;19.27;11.77;;;23.20;99.90;;;;;;5054665;28;20691;-41
2022/05/07 11:31:29;;;;;;;19.37;11.73;;;23.30;99.90;;;;;;5053324;28;20204;-40
2022/05/07 11:34:08;;;;;;;16.20;10.73;;;23.30;99.90;;;;;;5053227;28;20208;-41
2022/05/07 11:36:38;;;;;;;26.93;10.83;;;23.40;99.90;;;;;;5053592;28;20271;-42
2022/05/07 11:39:08;;;;;;;12.97;8.10;;;23.60;99.90;;;;;;5051928;28;20191;-41
2022/05/07 11:41:35;;;;;;;13.13;9.70;;;23.90;99.90;;;;;;5054021;28;20180;-40
2022/05/07 11:46:53;;;;;;;8.37;5.73;;;24.50;99.90;;;;;;5054227;28;20219;-41
2022/05/07 11:49:28;;;;;;;10.33;7.43;;;24.90;99.90;;;;;;5051905;28;20232;-41
2022/05/07 11:52:26;;;;;;;12.03;7.87;;;25.20;99.90;;;;;;5052024;28;20585;-39
2022/05/07 11:54:52;;;;;;;12.60;9.10;;;25.60;99.90;;;;;;5049082;28;20203;-40
2022/05/07 11:57:32;;;;;;;13.13;8.83;;;25.70;99.90;;;;;;5053275;28;20562;-40
2022/05/07 12:00:15;;;;;;;14.27;8.10;;;25.50;99.90;;;;;;5053418;28;20176;-41
2022/05/07 12:03:00;;;;;;;11.97;9.93;;;25.30;99.90;;;;;;5053122;28;20200;-40
2022/05/07 12:05:37;;;;;;;14.03;9.63;;;25.20;99.90;;;;;;5053484;28;20167;-41
2022/05/07 12:08:31;;;;;;;14.50;9.63;;;25.20;99.90;;;;;;5053216;28;20286;-42
2022/05/07 12:10:58;;;;;;;11.70;8.83;;;25.10;99.90;;;;;;5051372;28;20235;-41
2022/05/07 12:13:24;;;;;;;13.43;8.67;;;25.00;99.90;;;;;;5053164;28;20679;-42
2022/05/07 12:18:36;;;;;;;11.00;8.03;;;24.70;99.90;;;;;;5053597;28;20253;-41
2022/05/07 12:21:03;;;;;;;13.20;10.23;;;24.60;99.70;;;;;;5053476;28;20622;-41
2022/05/07 12:31:41;;;;;;;21.93;11.30;;;24.90;99.90;;;;;;5058783;28;20167;-41
2022/05/07 12:34:06;;;;;;;11.97;8.50;;;24.70;99.90;;;;;;5058623;28;20211;-42
2022/05/07 12:36:32;;;;;;;16.10;7.63;;;24.40;99.90;;;;;;5060755;28;20188;-41
2022/05/07 12:38:59;;;;;;;14.10;7.57;;;24.30;99.90;;;;;;5059539;28;20211;-41
2022/05/07 12:41:29;;;;;;;13.18;8.07;;;24.40;99.90;;;;;;5060083;28;20663;-41
2022/05/07 12:43:57;;;;;;;16.47;9.40;;;24.50;99.90;;;;;;5058579;28;20210;-42
2022/05/07 12:46:24;;;;;;;11.73;7.53;;;24.50;99.90;;;;;;5057992;28;20238;-40
2022/05/07 12:48:50;;;;;;;12.20;7.97;;;24.60;99.90;;;;;;5057324;28;20188;-41
2022/05/07 12:51:16;;;;;;;12.57;8.63;;;24.80;99.90;;;;;;5056869;28;20180;-40
2022/05/07 12:53:42;;;;;;;10.35;8.05;;;24.80;99.90;;;;;;5057016;28;20215;-40
2022/05/07 12:56:08;;;;;;;10.80;8.25;;;25.00;99.90;;;;;;5057700;28;20259;-41
2022/05/07 12:58:35;;;;;;;10.35;7.95;;;25.30;99.90;;;;;;5057022;28;20204;-41
2022/05/07 13:01:02;;;;;;;10.10;8.40;;;25.50;99.90;;;;;;5058144;28;20179;-43
2022/05/07 13:03:28;;;;;;;8.07;7.28;;;25.70;99.90;;;;;;5057691;28;20193;-42
2022/05/07 13:05:53;;;;;;;15.43;7.77;;;25.60;99.90;;;;;;5057399;28;20192;-41
2022/05/07 13:08:20;;;;;;;9.07;7.45;;;25.40;99.90;;;;;;5060504;28;20207;-40
2022/05/07 13:10:46;;;;;;;8.65;7.47;;;25.40;99.90;;;;;;5060468;28;20230;-42
2022/05/07 13:13:17;;;;;;;10.90;6.90;;;25.20;99.90;;;;;;5058436;28;20208;-42
2022/05/07 13:15:42;;;;;;;6.35;5.00;;;25.00;99.90;;;;;;5059864;28;20172;-40
2022/05/07 13:18:08;;;;;;;6.72;4.60;;;25.10;99.90;;;;;;5059856;28;20204;-42